Time;durP1;ratioP1;P1;durP2;ratioP2;P2;SDS_P1;SDS_P2;PMS_P1;PMS_P2;Temp;Humidity;BMP_temperature;BMP_pressure;BME280_temperature;BME280_humidity;BME280_pressure;Samples;Min_cycle;Max_cycle;Signal;HPM_P1;HPM_P2
2022/12/25 00:00:42;;;;;;;1.13;0.80;;;;;;;8.49;79.24;100945.13;5175186;28;20038;-80
2022/12/25 00:03:13;;;;;;;13.55;1.02;;;;;;;8.49;78.95;100952.97;5151931;28;20049;-81
2022/12/25 00:05:43;;;;;;;0.38;0.38;;;;;;;8.48;79.21;100948.63;5137992;28;20034;-81
2022/12/25 00:08:14;;;;;;;1.48;1.38;;;;;;;8.49;78.88;100947.75;5140996;28;20062;-82
2022/12/25 00:10:44;;;;;;;0.35;0.35;;;;;;;8.52;79.06;100948.59;5132657;28;20026;-81
2022/12/25 00:13:15;;;;;;;0.30;0.30;;;;;;;8.47;78.90;100946.06;5150237;28;20058;-80
2022/12/25 00:15:45;;;;;;;0.77;0.77;;;;;;;8.48;78.84;100940.78;5127536;28;20036;-81
2022/12/25 00:18:15;;;;;;;0.40;0.40;;;;;;;8.48;78.74;100939.94;5149492;28;20046;-80
2022/12/25 00:20:58;;;;;;;0.52;0.52;;;;;;;8.50;79.14;100944.25;5139756;28;20042;-82
2022/12/25 00:23:29;;;;;;;0.55;0.55;;;;;;;8.43;79.22;100955.66;5144226;28;20057;-80
2022/12/25 00:26:04;;;;;;;0.47;0.47;;;;;;;8.49;78.83;100950.38;5131839;28;20073;-81
2022/12/25 00:28:35;;;;;;;0.88;0.77;;;;;;;8.46;78.99;100947.78;5135098;28;20254;-80
2022/12/25 00:31:16;;;;;;;0.45;0.45;;;;;;;8.45;79.32;100948.66;5152510;28;20050;-81
2022/12/25 00:33:49;;;;;;;0.40;0.40;;;;;;;8.47;79.04;100949.53;5161381;28;20061;-82
2022/12/25 00:36:20;;;;;;;3.55;1.42;;;;;;;8.49;79.03;100947.75;5172764;28;20034;-81
2022/12/25 00:38:51;;;;;;;0.50;0.50;;;;;;;8.47;79.11;100949.53;5143169;28;20070;-82
2022/12/25 00:44:12;;;;;;;3.83;0.93;;;;;;;8.48;79.42;100951.25;5179706;28;20034;-82
2022/12/25 00:46:43;;;;;;;1.60;1.50;;;;;;;8.49;79.19;100946.91;5156116;28;20051;-81
2022/12/25 00:49:13;;;;;;;0.85;0.85;;;;;;;8.48;79.04;100951.25;5170004;28;20105;-81
2022/12/25 00:51:44;;;;;;;0.68;0.68;;;;;;;8.50;79.26;100949.50;5137125;28;20027;-81
2022/12/25 00:54:15;;;;;;;1.27;1.05;;;;;;;8.54;78.83;100959.91;5153029;28;20073;-82
2022/12/25 00:56:45;;;;;;;0.30;0.30;;;;;;;8.52;79.25;100954.69;5161322;28;20030;-81
2022/12/25 00:59:16;;;;;;;1.65;0.73;;;;;;;8.55;78.83;100959.03;5149257;28;20043;-81
2022/12/25 01:01:46;;;;;;;1.17;1.17;;;;;;;8.54;78.89;100952.06;5132296;28;20057;-82
2022/12/25 01:04:17;;;;;;;2.22;1.55;;;;;;;8.56;78.98;100952.88;5161912;28;20050;-82
2022/12/25 01:06:47;;;;;;;0.68;0.68;;;;;;;8.54;78.88;100959.91;5153880;28;20031;-82
2022/12/25 01:12:07;;;;;;;0.40;0.40;;;;;;;8.54;79.15;100949.44;5169956;28;20037;-81
2022/12/25 01:14:37;;;;;;;0.55;0.55;;;;;;;8.53;79.26;100948.56;5150283;28;20031;-81
2022/12/25 01:17:08;;;;;;;0.32;0.32;;;;;;;8.53;79.03;100955.56;5139458;28;20157;-81
2022/12/25 01:19:39;;;;;;;1.30;1.20;;;;;;;8.56;79.14;100955.50;5161891;28;20038;-81
2022/12/25 01:22:10;;;;;;;4.95;1.42;;;;;;;8.57;78.83;100957.22;5139780;28;20129;-82
2022/12/25 01:24:43;;;;;;;0.38;0.38;;;;;;;8.56;79.05;100950.28;5149898;28;20073;-82
2022/12/25 01:27:14;;;;;;;1.17;1.17;;;;;;;8.57;78.99;100957.22;5155258;28;20034;-82
2022/12/25 01:29:45;;;;;;;0.73;0.73;;;;;;;8.59;79.17;100955.47;5155987;28;20030;-82
2022/12/25 01:32:16;;;;;;;0.75;0.75;;;;;;;8.59;78.78;100952.84;5164691;28;20605;-81
2022/12/25 01:34:46;;;;;;;0.52;0.52;;;;;;;8.60;78.76;100949.34;5155356;28;20101;-81
2022/12/25 01:37:17;;;;;;;0.68;0.68;;;;;;;8.61;78.94;100951.09;5164197;28;20072;-82
2022/12/25 01:39:47;;;;;;;2.13;1.48;;;;;;;8.62;78.78;100948.44;5169438;28;20027;-82
2022/12/25 01:42:20;;;;;;;1.08;1.08;;;;;;;8.60;78.91;100944.97;5145608;28;20034;-81
2022/12/25 01:44:50;;;;;;;1.20;1.20;;;;;;;8.58;79.03;100938.03;5145134;28;20049;-80
2022/12/25 01:47:21;;;;;;;0.77;0.77;;;;;;;8.61;78.80;100936.25;5133919;28;20038;-81
2022/12/25 01:49:51;;;;;;;1.05;0.88;;;;;;;8.61;78.66;100941.47;5141229;28;20037;-81
2022/12/25 01:52:23;;;;;;;0.35;0.35;;;;;;;8.61;79.33;100956.31;5126964;28;20114;-80
2022/12/25 01:55:02;;;;;;;2.65;1.95;;;;;;;8.59;79.07;100952.84;5134607;28;20041;-81
2022/12/25 01:57:36;;;;;;;0.45;0.45;;;;;;;8.57;79.10;100952.00;5142386;28;20042;-81
2022/12/25 02:00:07;;;;;;;;;;;;;;;8.58;79.27;100953.72;5162260;28;20038;-81
2022/12/25 02:02:40;;;;;;;1.05;1.02;;;;;;;8.57;79.17;100955.50;5149048;28;19921;-81
2022/12/25 02:05:21;;;;;;;1.20;1.10;;;;;;;8.62;78.59;100968.50;5153801;28;20451;-81
2022/12/25 02:07:55;;;;;;;2.00;1.90;;;;;;;8.56;79.79;100969.47;5132544;28;20101;-82
2022/12/25 02:10:25;;;;;;;2.58;1.42;;;;;;;8.57;79.02;100970.31;5144969;28;20030;-81
2022/12/25 02:12:55;;;;;;;0.50;0.50;;;;;;;8.53;79.14;100973.88;5152244;28;20073;-82
2022/12/25 02:15:57;;;;;;;1.83;1.15;;;;;;;8.55;79.20;100978.19;5153923;28;20845;-81
2022/12/25 02:18:37;;;;;;;1.27;1.17;;;;;;;8.58;78.97;100966.81;5146941;28;20058;-81
2022/12/25 02:21:20;;;;;;;2.00;0.68;;;;;;;8.54;79.18;100965.16;5164687;28;20030;-81
2022/12/25 02:24:18;;;;;;;1.25;1.20;;;;;;;8.58;78.94;100958.97;5181945;28;20038;-81
2022/12/25 02:27:14;;;;;;;0.45;0.45;;;;;;;8.55;78.91;100961.66;5181732;28;20046;-81
2022/12/25 02:30:07;;;;;;;0.40;0.40;;;;;;;8.55;79.27;100965.09;5157759;28;20461;-81
2022/12/25 02:32:40;;;;;;;0.88;0.88;;;;;;;8.54;78.98;100967.75;5162432;28;20049;-81
2022/12/25 02:35:22;;;;;;;1.13;1.10;;;;;;;8.49;79.21;100970.44;5160772;28;20521;-81
2022/12/25 02:38:07;;;;;;;1.00;1.00;;;;;;;8.47;79.30;100975.66;5158889;28;20105;-81
2022/12/25 02:40:37;;;;;;;1.13;1.05;;;;;;;8.48;79.25;100987.00;5152284;28;20085;-81
2022/12/25 03:06:45;;;;;;;0.60;0.60;;;;;;;8.52;79.16;100961.69;5144485;28;20325;-81
2022/12/25 03:12:22;;;;;;;0.43;0.43;;;;;;;8.50;79.17;100959.09;5157784;28;20054;-81
2022/12/25 03:17:42;;;;;;;1.02;0.95;;;;;;;8.48;78.98;100959.09;5141449;28;20046;-80
2022/12/25 03:28:40;;;;;;;0.32;0.32;;;;;;;8.47;79.36;100928.59;5155350;28;20096;-81
2022/12/25 03:31:23;;;;;;;1.58;1.48;;;;;;;8.47;79.55;100923.38;5148769;28;20677;-81
2022/12/25 04:38:21;;;;;;;0.50;0.50;;;;;;;8.43;79.71;100899.91;5160895;28;20070;-82
2022/12/25 04:40:51;;;;;;;0.60;0.60;;;;;;;8.43;80.11;100890.28;5146195;28;20374;-81
2022/12/25 04:43:24;;;;;;;0.50;0.50;;;;;;;8.37;80.37;100887.78;5138445;28;20054;-80
2022/12/25 04:45:59;;;;;;;1.08;1.08;;;;;;;8.39;80.48;100883.38;5161619;28;20064;-81
2022/12/25 04:48:32;;;;;;;0.40;0.40;;;;;;;8.43;80.66;100890.28;5132900;28;20949;-81
2022/12/25 04:51:18;;;;;;;2.30;1.55;;;;;;;8.39;81.20;100878.13;5145156;28;20022;-81
2022/12/25 04:53:50;;;;;;;0.40;0.40;;;;;;;8.45;80.67;100887.66;5132691;28;20048;-81
2022/12/25 04:56:20;;;;;;;0.30;0.30;;;;;;;8.55;80.62;100883.19;5143631;28;20046;-81
2022/12/25 04:58:51;;;;;;;0.30;0.30;;;;;;;8.47;80.37;100886.75;5123385;28;20034;-81
2022/12/25 05:01:21;;;;;;;0.28;0.28;;;;;;;8.49;81.38;100878.91;5151090;28;20030;-81
2022/12/25 05:03:52;;;;;;;0.30;0.30;;;;;;;8.45;81.05;100887.66;5147727;28;20042;-80
2022/12/25 05:06:23;;;;;;;0.50;0.50;;;;;;;8.44;81.05;100878.06;5142663;28;20031;-80
2022/12/25 05:08:53;;;;;;;1.10;1.10;;;;;;;8.44;80.94;100873.72;5122850;28;20073;-80
2022/12/25 05:11:24;;;;;;;0.50;0.50;;;;;;;8.44;81.58;100865.00;5163576;28;20034;-81
2022/12/25 05:13:55;;;;;;;3.85;0.47;;;;;;;8.49;82.04;100868.44;5158958;28;20050;-80
2022/12/25 05:16:26;;;;;;;0.30;0.30;;;;;;;8.47;81.83;100857.16;5160967;28;20022;-81
2022/12/25 05:18:57;;;;;;;0.30;0.30;;;;;;;8.43;81.76;100852.84;5167247;28;20061;-80
2022/12/25 05:21:28;;;;;;;0.45;0.45;;;;;;;8.43;81.55;100843.22;5149017;28;20057;-81
2022/12/25 05:23:58;;;;;;;0.50;0.50;;;;;;;8.45;81.40;100845.81;5164165;28;20053;-80
2022/12/25 05:26:29;;;;;;;0.30;0.30;;;;;;;8.45;81.75;100840.56;5163422;28;20091;-81
2022/12/25 05:28:59;;;;;;;0.20;0.20;;;;;;;8.44;81.73;100844.06;5155061;28;20050;-81
2022/12/25 05:31:30;;;;;;;0.25;0.25;;;;;;;8.45;81.43;100836.22;5148409;28;20045;-81
2022/12/25 05:34:00;;;;;;;0.40;0.40;;;;;;;8.49;81.34;100840.53;5160773;28;20034;-81
2022/12/25 05:36:31;;;;;;;0.60;0.60;;;;;;;8.48;81.10;100838.81;5148487;28;20283;-80
2022/12/25 05:39:01;;;;;;;0.50;0.50;;;;;;;8.50;81.34;100842.25;5149709;28;20524;-80
2022/12/25 05:41:32;;;;;;;0.30;0.30;;;;;;;8.48;81.06;100848.41;5150026;28;20030;-80
2022/12/25 05:44:02;;;;;;;0.32;0.32;;;;;;;8.48;81.41;100854.50;5139058;28;20160;-80
2022/12/25 05:46:33;;;;;;;0.30;0.30;;;;;;;8.43;81.17;100856.28;5167322;28;20027;-81
2022/12/25 05:49:04;;;;;;;0.30;0.30;;;;;;;8.44;81.36;100847.56;5152459;28;20038;-80
2022/12/25 05:51:35;;;;;;;0.57;0.57;;;;;;;8.44;81.27;100842.34;5148502;28;20097;-81
2022/12/25 05:54:05;;;;;;;0.20;0.20;;;;;;;8.44;81.80;100839.72;5166848;28;20655;-81
2022/12/25 05:56:36;;;;;;;1.25;1.15;;;;;;;8.45;81.45;100835.34;5136943;28;20652;-81
2022/12/25 05:59:07;;;;;;;1.83;1.73;;;;;;;8.45;81.56;100828.38;5162063;28;20123;-80
2022/12/25 06:01:37;;;;;;;3.38;1.90;;;;;;;8.42;81.69;100817.97;5163435;28;20160;-80
2022/12/25 06:04:08;;;;;;;0.43;0.43;;;;;;;8.45;81.73;100812.69;5141211;28;20524;-80
2022/12/25 06:06:39;;;;;;;1.55;1.27;;;;;;;8.44;81.68;100816.19;5137192;28;20030;-82
2022/12/25 06:09:12;;;;;;;0.20;0.20;;;;;;;8.44;81.81;100818.81;5144987;28;20034;-82
2022/12/25 06:11:42;;;;;;;0.40;0.40;;;;;;;8.51;81.82;100819.59;5165989;28;20041;-82
2022/12/25 06:14:14;;;;;;;0.30;0.30;;;;;;;8.48;81.43;100820.50;5141018;28;20038;-82
2022/12/25 06:16:45;;;;;;;0.30;0.30;;;;;;;8.50;81.47;100817.88;5162198;28;20046;-83
2022/12/25 06:19:15;;;;;;;2.25;0.68;;;;;;;8.52;81.46;100815.22;5148624;28;20055;-85
2022/12/25 06:21:46;;;;;;;0.77;0.77;;;;;;;8.52;81.65;100820.47;5145291;28;20071;-83
2022/12/25 06:24:17;;;;;;;0.60;0.60;;;;;;;8.49;81.80;100809.16;5135971;28;20051;-81
2022/12/25 06:26:48;;;;;;;0.30;0.30;;;;;;;8.51;81.63;100803.91;5159171;28;20417;-83
2022/12/25 06:29:19;;;;;;;0.40;0.40;;;;;;;8.53;81.74;100801.28;5151273;28;20634;-82
2022/12/25 06:31:49;;;;;;;0.38;0.38;;;;;;;8.54;81.29;100784.69;5167364;28;20090;-83
2022/12/25 06:34:20;;;;;;;1.05;1.05;;;;;;;8.58;81.28;100778.50;5157123;28;20058;-83
2022/12/25 06:36:50;;;;;;;0.30;0.30;;;;;;;8.54;81.49;100771.63;5162170;28;20098;-81
2022/12/25 06:39:21;;;;;;;0.40;0.40;;;;;;;8.54;81.54;100780.31;5169216;28;20033;-83
2022/12/25 06:41:52;;;;;;;0.65;0.65;;;;;;;8.54;81.46;100766.38;5155882;28;20061;-81
2022/12/25 06:44:29;;;;;;;0.40;0.40;;;;;;;8.55;81.50;100768.13;5141423;28;20114;-83
2022/12/25 06:46:59;;;;;;;0.40;0.40;;;;;;;8.50;81.51;100771.66;5164976;28;20057;-83
2022/12/25 06:49:30;;;;;;;0.88;0.85;;;;;;;8.59;81.29;100770.66;5141221;28;20038;-81
2022/12/25 06:52:01;;;;;;;0.93;0.93;;;;;;;8.53;81.46;100770.72;5152565;28;20060;-82
2022/12/25 06:54:31;;;;;;;0.63;0.63;;;;;;;8.53;81.98;100775.13;5142768;28;20078;-80
2022/12/25 06:57:02;;;;;;;0.80;0.75;;;;;;;8.50;81.80;100763.81;5135893;28;20076;-81
2022/12/25 06:59:32;;;;;;;0.55;0.55;;;;;;;8.48;82.37;100751.66;5157298;28;20525;-81
2022/12/25 07:02:03;;;;;;;0.30;0.30;;;;;;;8.46;82.49;100751.66;5147291;28;20039;-81
2022/12/25 07:04:37;;;;;;;0.40;0.40;;;;;;;8.50;82.12;100740.28;5131809;28;20802;-80
2022/12/25 07:07:08;;;;;;;0.30;0.30;;;;;;;8.53;82.97;100728.03;5127528;28;20030;-81
2022/12/25 07:09:41;;;;;;;0.60;0.60;;;;;;;8.52;82.94;100729.78;5123112;28;20038;-80
2022/12/25 07:12:19;;;;;;;0.30;0.30;;;;;;;8.52;83.34;100723.69;5154383;28;20123;-81
2022/12/25 07:14:53;;;;;;;0.30;0.30;;;;;;;8.53;83.43;100718.44;5126593;28;20730;-81
2022/12/25 07:17:24;;;;;;;0.50;0.50;;;;;;;8.58;83.40;100721.84;5140590;28;20060;-82
2022/12/25 07:19:55;;;;;;;0.75;0.57;;;;;;;8.61;83.73;100732.22;5161076;28;20053;-82
2022/12/25 07:22:27;;;;;;;1.48;1.05;;;;;;;8.64;83.52;100726.06;5160835;28;20089;-82
2022/12/25 07:24:58;;;;;;;0.22;0.22;;;;;;;8.68;83.55;100717.28;5157573;28;20019;-82
2022/12/25 07:27:29;;;;;;;0.80;0.60;;;;;;;8.64;84.05;100713.00;5128266;28;20053;-83
2022/12/25 07:29:59;;;;;;;0.93;0.93;;;;;;;8.67;84.00;100705.09;5160518;28;20105;-84
2022/12/25 07:32:30;;;;;;;0.22;0.22;;;;;;;8.71;83.98;100705.91;5131893;28;20031;-84
2022/12/25 07:35:01;;;;;;;1.00;1.00;;;;;;;8.75;83.97;100704.97;5140630;28;20045;-84
2022/12/25 07:37:31;;;;;;;0.40;0.40;;;;;;;8.72;83.33;100698.00;5132627;28;20088;-84
2022/12/25 07:40:02;;;;;;;2.55;1.35;;;;;;;8.71;84.29;100698.06;5143257;28;20034;-84
2022/12/25 07:42:33;;;;;;;0.30;0.30;;;;;;;8.71;84.02;100696.31;5143659;28;20030;-84
2022/12/25 07:45:05;;;;;;;0.38;0.38;;;;;;;8.73;84.43;100704.97;5141353;28;20027;-81
2022/12/25 07:47:35;;;;;;;0.40;0.40;;;;;;;8.73;85.29;100704.97;5158835;28;20500;-84
2022/12/25 07:50:06;;;;;;;0.30;0.30;;;;;;;8.74;84.48;100706.69;5140328;28;20030;-82
2022/12/25 07:52:37;;;;;;;0.30;0.30;;;;;;;8.73;84.79;100710.19;5140785;28;20653;-80
2022/12/25 07:55:08;;;;;;;0.30;0.30;;;;;;;8.76;84.95;100709.31;5145413;28;20057;-81
2022/12/25 07:57:38;;;;;;;0.30;0.30;;;;;;;8.75;84.59;100702.34;5135610;28;20031;-82
2022/12/25 08:00:09;;;;;;;0.40;0.40;;;;;;;8.77;85.68;100700.53;5138769;28;20681;-82
2022/12/25 08:02:40;;;;;;;0.30;0.30;;;;;;;8.75;85.65;100692.72;5138409;28;20209;-81
2022/12/25 08:05:10;;;;;;;0.20;0.20;;;;;;;8.77;85.06;100690.06;5140001;28;20113;-82
2022/12/25 08:07:41;;;;;;;0.20;0.20;;;;;;;8.79;84.98;100693.53;5124427;28;20101;-82
2022/12/25 08:10:11;;;;;;;0.70;0.70;;;;;;;8.85;85.13;100687.31;5125769;28;20034;-82
2022/12/25 08:12:42;;;;;;;7.25;1.13;;;;;;;8.88;85.15;100701.19;5146767;28;20038;-83
2022/12/25 08:15:12;;;;;;;0.30;0.30;;;;;;;8.84;84.79;100698.66;5143293;28;20038;-83
2022/12/25 08:17:43;;;;;;;0.70;0.70;;;;;;;8.80;86.51;100708.34;5125160;28;20558;-83
2022/12/25 08:20:13;;;;;;;0.30;0.30;;;;;;;8.87;85.81;100716.94;5153630;28;20034;-80
2022/12/25 08:22:44;;;;;;;1.05;1.05;;;;;;;8.86;85.61;100686.44;5159879;28;20137;-83
2022/12/25 08:25:14;;;;;;;0.30;0.30;;;;;;;8.90;85.26;100664.53;5172155;28;20073;-82
2022/12/25 08:27:45;;;;;;;0.47;0.47;;;;;;;8.95;85.19;100636.53;5151231;28;20031;-83
2022/12/25 08:30:16;;;;;;;1.60;0.98;;;;;;;8.90;85.61;100657.53;5151501;28;20072;-83
2022/12/25 08:32:46;;;;;;;0.85;0.85;;;;;;;8.91;85.07;100685.44;5156615;28;20286;-83
2022/12/25 08:35:17;;;;;;;3.25;2.05;;;;;;;8.92;85.22;100704.59;5142989;28;20515;-83
2022/12/25 08:37:48;;;;;;;2.17;1.40;;;;;;;8.97;85.38;100715.84;5150236;28;20090;-81
2022/12/25 08:40:18;;;;;;;0.98;0.98;;;;;;;8.95;85.60;100726.34;5148042;28;20448;-83
2022/12/25 08:42:49;;;;;;;2.10;1.75;;;;;;;8.96;85.67;100737.69;5148155;28;20052;-83
2022/12/25 08:45:19;;;;;;;0.77;0.77;;;;;;;9.01;85.55;100743.69;5122474;28;20129;-82
2022/12/25 08:47:54;;;;;;;1.50;1.25;;;;;;;9.00;87.20;100728.88;5126498;28;20786;-84
2022/12/25 08:50:24;;;;;;;1.75;1.58;;;;;;;9.04;86.17;100720.06;5132263;28;20026;-81
2022/12/25 08:52:55;;;;;;;0.75;0.75;;;;;;;8.97;87.73;100703.63;5131725;28;20046;-81
2022/12/25 08:55:26;;;;;;;1.00;0.98;;;;;;;8.98;87.09;100680.91;5141317;28;20046;-81
2022/12/25 08:57:56;;;;;;;1.15;1.08;;;;;;;9.05;86.08;100673.81;5142804;28;20655;-82
2022/12/25 09:00:28;;;;;;;1.50;1.40;;;;;;;9.04;87.16;100666.84;5126907;28;20517;-83
2022/12/25 09:02:58;;;;;;;0.30;0.30;;;;;;;9.10;86.67;100679.78;5136749;28;21652;-82
2022/12/25 09:05:29;;;;;;;0.63;0.63;;;;;;;9.10;86.35;100682.41;5141150;28;20112;-83
2022/12/25 09:07:59;;;;;;;0.90;0.90;;;;;;;9.15;85.66;100704.13;5146513;28;20651;-81
2022/12/25 09:10:30;;;;;;;0.35;0.35;;;;;;;9.18;86.12;100696.19;5139532;28;20034;-83
2022/12/25 09:13:01;;;;;;;2.17;1.23;;;;;;;9.17;85.64;100709.31;5139309;28;20034;-81
2022/12/25 09:15:32;;;;;;;0.75;0.75;;;;;;;9.16;86.00;100708.47;5162613;28;20026;-82
2022/12/25 09:18:03;;;;;;;1.52;1.42;;;;;;;9.21;85.83;100716.25;5153755;28;20108;-80
2022/12/25 09:20:33;;;;;;;0.75;0.75;;;;;;;9.22;85.56;100729.28;5137749;28;20038;-82
2022/12/25 09:23:04;;;;;;;0.68;0.60;;;;;;;9.22;85.94;100733.63;5155891;28;20057;-82
2022/12/25 09:25:35;;;;;;;3.10;1.20;;;;;;;9.22;85.77;100739.75;5157172;28;20037;-82
2022/12/25 09:28:05;;;;;;;0.55;0.55;;;;;;;9.27;85.65;100758.00;5145881;28;20116;-83
2022/12/25 09:30:36;;;;;;;0.98;0.98;;;;;;;9.50;84.46;100743.53;5147651;28;20030;-81
2022/12/25 09:33:06;;;;;;;0.50;0.50;;;;;;;9.46;85.90;100742.72;5141854;28;20088;-82
2022/12/25 09:35:37;;;;;;;2.03;1.92;;;;;;;9.40;85.06;100745.50;5122044;28;20026;-82
2022/12/25 09:38:07;;;;;;;0.88;0.88;;;;;;;9.34;85.53;100751.72;5136638;28;20050;-81
2022/12/25 09:40:39;;;;;;;0.60;0.40;;;;;;;9.32;85.64;100760.50;5154775;28;20030;-82
2022/12/25 09:43:15;;;;;;;1.38;1.27;;;;;;;9.33;85.57;100747.38;5140944;28;20054;-82
2022/12/25 09:45:46;;;;;;;0.80;0.60;;;;;;;9.35;85.33;100748.22;5143030;28;20035;-81
2022/12/25 09:48:17;;;;;;;0.80;0.65;;;;;;;9.39;85.23;100752.47;5121343;28;20061;-81
2022/12/25 09:50:50;;;;;;;0.38;0.38;;;;;;;9.37;85.21;100738.56;5170457;28;20038;-81
2022/12/25 09:53:24;;;;;;;0.30;0.30;;;;;;;9.34;85.54;100729.94;5126522;28;20323;-81
2022/12/25 09:56:05;;;;;;;0.40;0.40;;;;;;;9.37;85.43;100727.22;5130355;28;20038;-82
2022/12/25 09:58:36;;;;;;;1.27;1.23;;;;;;;9.33;85.70;100726.44;5144471;28;20761;-81
2022/12/25 10:01:31;;;;;;;0.45;0.45;;;;;;;9.36;86.08;100720.25;5144116;28;20026;-81
2022/12/25 10:04:24;;;;;;;1.10;1.00;;;;;;;9.33;86.15;100726.44;5137615;28;20042;-82
2022/12/25 10:07:21;;;;;;;0.95;0.95;;;;;;;9.37;85.62;100725.47;5144579;28;20323;-81
2022/12/25 10:10:19;;;;;;;0.50;0.50;;;;;;;9.38;85.71;100714.09;5141443;28;20053;-81
2022/12/25 10:12:56;;;;;;;0.75;0.75;;;;;;;9.39;85.96;100697.47;5130981;28;20086;-83
2022/12/25 10:15:46;;;;;;;2.83;0.77;;;;;;;9.32;88.08;100685.44;5139725;28;20469;-81
2022/12/25 10:18:46;;;;;;;0.40;0.40;;;;;;;9.33;87.82;100683.69;5140996;28;20038;-83
2022/12/25 10:21:18;;;;;;;0.55;0.55;;;;;;;9.38;87.00;100676.56;5143175;28;20084;-81
2022/12/25 10:23:57;;;;;;;0.73;0.73;;;;;;;9.41;86.24;100682.59;5153109;28;20061;-82
2022/12/25 10:26:30;;;;;;;0.60;0.60;;;;;;;9.44;86.81;100684.28;5146876;28;20030;-82
2022/12/25 10:29:09;;;;;;;0.50;0.50;;;;;;;9.43;86.86;100669.47;5131300;28;20041;-82
2022/12/25 10:31:44;;;;;;;1.42;1.27;;;;;;;9.49;85.68;100663.22;5133513;28;20026;-82
2022/12/25 10:34:15;;;;;;;0.70;0.70;;;;;;;9.47;86.02;100665.00;5131457;28;20065;-82
2022/12/25 10:36:46;;;;;;;0.73;0.70;;;;;;;9.48;86.12;100654.53;5162411;28;20062;-82
2022/12/25 10:39:29;;;;;;;0.40;0.40;;;;;;;9.49;86.53;100645.78;5143433;28;20070;-83
2022/12/25 10:42:18;;;;;;;0.63;0.63;;;;;;;9.56;86.09;100655.19;5148265;28;20065;-83
2022/12/25 10:45:00;;;;;;;1.73;1.63;;;;;;;9.51;86.36;100664.06;5164602;28;20046;-81
2022/12/25 10:47:42;;;;;;;1.65;1.55;;;;;;;9.50;87.03;100675.44;5168566;28;20028;-81
2022/12/25 10:50:18;;;;;;;0.82;0.82;;;;;;;9.50;86.95;100670.19;5133192;28;20492;-81
2022/12/25 10:52:55;;;;;;;1.40;1.20;;;;;;;9.53;86.89;100654.41;5133528;28;20822;-82
2022/12/25 10:55:26;;;;;;;0.30;0.30;;;;;;;9.54;87.06;100645.66;5130471;28;20034;-83
2022/12/25 10:57:57;;;;;;;0.30;0.30;;;;;;;9.56;86.88;100643.84;5166695;28;20248;-82
2022/12/25 11:00:30;;;;;;;0.20;0.20;;;;;;;9.57;86.54;100641.22;5176481;28;20034;-82
2022/12/25 11:03:01;;;;;;;0.85;0.85;;;;;;;9.63;86.79;100624.47;5167850;28;20046;-83
2022/12/25 11:05:33;;;;;;;0.65;0.65;;;;;;;9.66;86.54;100607.81;5140818;28;20038;-82
2022/12/25 11:08:20;;;;;;;0.30;0.30;;;;;;;9.63;88.81;100603.50;5167224;28;20046;-82
2022/12/25 11:10:54;;;;;;;0.73;0.73;;;;;;;9.58;88.93;100584.44;5146711;28;20125;-82
2022/12/25 11:13:29;;;;;;;0.60;0.60;;;;;;;9.59;89.57;100580.91;5146131;28;20054;-81
2022/12/25 11:16:24;;;;;;;1.35;1.05;;;;;;;9.58;90.54;100568.72;5156033;28;20038;-81
2022/12/25 11:18:55;;;;;;;0.40;0.40;;;;;;;9.57;89.95;100565.25;5153322;28;20039;-81
2022/12/25 11:21:29;;;;;;;1.55;0.60;;;;;;;9.58;89.11;100553.88;5146349;28;20493;-82
2022/12/25 11:24:05;;;;;;;0.77;0.77;;;;;;;9.64;88.55;100552.00;5158049;28;20069;-81
2022/12/25 11:26:54;;;;;;;0.95;0.95;;;;;;;9.75;88.03;100527.22;5125029;28;20045;-81
2022/12/25 11:29:49;;;;;;;1.10;0.93;;;;;;;9.71;88.70;100522.94;5125924;28;20574;-83
2022/12/25 11:32:46;;;;;;;0.30;0.30;;;;;;;9.71;88.85;100522.94;5140167;28;20088;-81
2022/12/25 11:35:17;;;;;;;0.80;0.80;;;;;;;9.62;90.98;100520.59;5135394;28;20054;-83
2022/12/25 11:37:51;;;;;;;0.52;0.52;;;;;;;9.63;90.21;100522.28;5146435;28;20084;-81
2022/12/25 11:40:28;;;;;;;0.32;0.32;;;;;;;9.68;89.11;100533.53;5150939;28;20211;-81
2022/12/25 11:43:19;;;;;;;1.30;1.02;;;;;;;9.71;88.71;100512.47;5145849;28;20069;-82
2022/12/25 11:46:00;;;;;;;3.58;3.30;;;;;;;9.72;89.13;100495.84;5139185;28;20500;-82
2022/12/25 11:48:38;;;;;;;1.83;1.73;;;;;;;9.74;88.32;100496.69;5139414;28;20049;-82
2022/12/25 11:51:09;;;;;;;1.25;1.15;;;;;;;9.72;88.48;100488.00;5154816;28;20049;-82
2022/12/25 11:53:42;;;;;;;0.95;0.95;;;;;;;9.72;88.45;100488.00;5139603;28;20528;-82
2022/12/25 11:56:25;;;;;;;0.80;0.80;;;;;;;9.74;88.61;100490.59;5125475;28;20109;-82
2022/12/25 11:59:06;;;;;;;0.55;0.55;;;;;;;9.71;89.21;100494.13;5135583;28;20049;-82
2022/12/25 12:01:44;;;;;;;0.40;0.40;;;;;;;9.64;91.18;100479.47;5126043;28;20070;-83
2022/12/25 12:04:27;;;;;;;0.55;0.55;;;;;;;9.68;90.29;100472.41;5131205;28;20039;-82
2022/12/25 12:07:08;;;;;;;0.47;0.47;;;;;;;9.67;89.60;100484.66;5152295;28;20022;-82
2022/12/25 12:09:50;;;;;;;0.40;0.40;;;;;;;9.68;89.12;100470.66;5127761;28;20042;-83
2022/12/25 12:12:33;;;;;;;0.68;0.63;;;;;;;9.70;88.90;100462.75;5157745;28;20022;-83
2022/12/25 12:15:25;;;;;;;0.63;0.63;;;;;;;9.70;89.06;100463.63;5132907;28;20066;-83
2022/12/25 12:18:15;;;;;;;0.40;0.40;;;;;;;9.74;88.34;100474.88;5153190;28;20042;-83
2022/12/25 12:21:01;;;;;;;0.73;0.73;;;;;;;9.74;88.50;100465.22;5131134;28;20130;-83
2022/12/25 12:23:49;;;;;;;0.40;0.40;;;;;;;9.76;88.65;100466.06;5120036;28;20038;-83
2022/12/25 12:26:27;;;;;;;0.75;0.75;;;;;;;9.74;88.83;100470.47;5133328;28;20050;-83
2022/12/25 12:29:01;;;;;;;0.57;0.57;;;;;;;9.76;87.97;100468.69;5131706;28;20089;-83
2022/12/25 12:31:51;;;;;;;0.68;0.68;;;;;;;9.80;88.50;100453.72;5141231;28;20034;-82
2022/12/25 12:34:21;;;;;;;0.68;0.68;;;;;;;9.80;87.46;100451.13;5124540;28;20098;-82
2022/12/25 12:36:59;;;;;;;0.60;0.60;;;;;;;9.78;88.27;100450.28;5135316;28;20110;-82
2022/12/25 12:39:36;;;;;;;0.88;0.88;;;;;;;9.81;88.20;100451.97;5125228;28;20145;-82
2022/12/25 12:42:19;;;;;;;1.20;1.10;;;;;;;9.79;88.77;100446.78;5145546;28;20257;-83
2022/12/25 12:44:51;;;;;;;;;;;;;;;9.79;88.00;100441.53;5141856;28;20030;-84
2022/12/25 12:47:40;;;;;;;0.77;0.77;;;;;;;9.79;88.30;100440.69;5144853;28;19972;-82
2022/12/25 12:50:34;;;;;;;0.93;0.93;;;;;;;9.77;88.60;100431.09;5150216;28;20461;-81
2022/12/25 12:53:32;;;;;;;0.38;0.38;;;;;;;9.82;87.96;100432.72;5137231;28;20057;-81
2022/12/25 12:56:17;;;;;;;0.80;0.80;;;;;;;9.80;88.53;100439.75;5141967;28;20097;-82
2022/12/25 12:58:49;;;;;;;1.05;0.95;;;;;;;9.84;88.74;100444.03;5150488;28;20045;-81
2022/12/25 13:01:26;;;;;;;1.17;1.15;;;;;;;9.86;88.47;100443.06;5138696;28;20068;-81
2022/12/25 13:04:09;;;;;;;0.50;0.50;;;;;;;9.85;88.49;100430.03;5152212;28;20065;-80
2022/12/25 13:06:51;;;;;;;0.60;0.60;;;;;;;9.85;87.90;100438.72;5162183;28;20041;-80
2022/12/25 13:09:30;;;;;;;0.82;0.80;;;;;;;9.92;88.04;100410.59;5123286;28;20046;-81
2022/12/25 13:12:06;;;;;;;0.45;0.45;;;;;;;9.86;88.31;100405.53;5140137;28;20683;-81
2022/12/25 13:14:37;;;;;;;1.70;0.95;;;;;;;9.87;88.25;100407.25;5155231;28;20041;-81
2022/12/25 13:17:08;;;;;;;0.77;0.77;;;;;;;9.90;88.38;100402.78;5123452;28;20525;-80
2022/12/25 13:19:42;;;;;;;0.73;0.73;;;;;;;9.96;88.36;100398.25;5144553;28;20045;-81
2022/12/25 13:22:34;;;;;;;1.95;0.88;;;;;;;9.90;88.29;100386.19;5161181;28;20033;-81
2022/12/25 13:25:16;;;;;;;0.40;0.40;;;;;;;9.91;88.17;100393.16;5163595;28;20110;-81
2022/12/25 13:27:56;;;;;;;1.25;1.15;;;;;;;9.92;88.66;100405.34;5153178;28;20836;-82
2022/12/25 13:30:27;;;;;;;2.08;1.25;;;;;;;9.92;88.75;100398.34;5153258;28;20050;-81
2022/12/25 13:32:58;;;;;;;0.63;0.63;;;;;;;9.95;88.37;100397.41;5171558;28;20414;-81
2022/12/25 13:35:29;;;;;;;1.02;1.00;;;;;;;9.97;87.95;100395.56;5137953;28;20042;-81
2022/12/25 13:38:00;;;;;;;0.30;0.30;;;;;;;9.98;88.09;100407.78;5123712;28;20030;-80
2022/12/25 13:40:31;;;;;;;1.15;0.85;;;;;;;9.98;88.33;100399.91;5138063;28;20046;-81
2022/12/25 13:43:02;;;;;;;0.35;0.35;;;;;;;10.04;87.94;100404.97;5138733;28;20176;-81
2022/12/25 13:45:34;;;;;;;1.30;1.20;;;;;;;10.05;88.19;100409.31;5139983;28;20034;-81
2022/12/25 13:48:14;;;;;;;0.52;0.52;;;;;;;10.07;87.85;100402.25;5152851;28;20034;-81
2022/12/25 13:50:55;;;;;;;1.33;1.30;;;;;;;10.08;88.03;100401.38;5137105;28;20030;-81
2022/12/25 13:53:26;;;;;;;3.30;0.65;;;;;;;10.04;87.94;100397.09;5122057;28;20227;-81
2022/12/25 13:55:57;;;;;;;0.40;0.40;;;;;;;10.04;88.14;100388.41;5152183;28;20027;-81